CYVV

Wiarton Airport

Wiarton, , Canada
METAR CYVV 200700Z 07008KT 1SM -DZ BR OVC004 01/01 A2996 RMK FG5SF3 SLP156
Observed Flight Rules
Feb-20 @ 07:00 UTC (25 minutes ago) Instrument Flight Rules
Wind Visibility Clouds Conditions
70° at 8 knots 1 miles
  • Overcast at 400' AGL
  • Light Drizzle
  • Mist
Temperatures Readings
Current 1°C / 34°F
Dewpoint 1°C / 34°F
Humidity 100%
Altimeter 29.96" Hg
Pressure 1015.6 hPa
Elevation 222
METAR CYVV 200700Z 07008KT 1SM -DZ BR OVC004 01/01 A2996 RMK FG5SF3 SLP156
Observed Flight Rules
Feb-20 @ 07:00 UTC
(25 minutes ago)
LIFR
Wind Visibility
70° at 8 knots 1 miles
Clouds
  • Overcast at 400' AGL
Conditions
  • Light Drizzle
  • Mist
Temperature Dewpoint
1°C / 34°F 1°C / 34°F
Humidity Altimeter Pressure
100% 29.96" Hg 1015.6 hPa